sensor_id;sensor_type;location;lat;lon;timestamp;temperature;humidity
21031;DHT22;61072;47.808;7.636;2023-04-25T00:00:20;11.10;99.90
21031;DHT22;61072;47.808;7.636;2023-04-25T00:02:47;11.10;99.90
21031;DHT22;61072;47.808;7.636;2023-04-25T00:05:14;11.10;99.90
21031;DHT22;61072;47.808;7.636;2023-04-25T00:07:41;11.10;99.90
21031;DHT22;61072;47.808;7.636;2023-04-25T00:10:10;11.10;99.90
21031;DHT22;61072;47.808;7.636;2023-04-25T00:12:38;11.10;99.90
21031;DHT22;61072;47.808;7.636;2023-04-25T00:15:05;11.10;99.90
21031;DHT22;61072;47.808;7.636;2023-04-25T00:17:33;11.10;99.90
21031;DHT22;61072;47.808;7.636;2023-04-25T00:20:01;11.10;99.90
21031;DHT22;61072;47.808;7.636;2023-04-25T00:22:32;11.10;99.90
21031;DHT22;61072;47.808;7.636;2023-04-25T00:25:00;11.10;99.90
21031;DHT22;61072;47.808;7.636;2023-04-25T00:27:26;11.10;99.90
21031;DHT22;61072;47.808;7.636;2023-04-25T00:29:53;11.10;99.90
21031;DHT22;61072;47.808;7.636;2023-04-25T00:32:20;11.00;99.90
21031;DHT22;61072;47.808;7.636;2023-04-25T00:34:46;11.00;99.90
21031;DHT22;61072;47.808;7.636;2023-04-25T00:37:13;10.90;99.90
21031;DHT22;61072;47.808;7.636;2023-04-25T00:39:40;10.90;99.90
21031;DHT22;61072;47.808;7.636;2023-04-25T00:42:08;10.90;99.90
21031;DHT22;61072;47.808;7.636;2023-04-25T00:44:35;10.90;99.90
21031;DHT22;61072;47.808;7.636;2023-04-25T00:47:02;10.80;99.90
21031;DHT22;61072;47.808;7.636;2023-04-25T00:49:30;10.80;99.90
21031;DHT22;61072;47.808;7.636;2023-04-25T00:51:57;10.80;99.90
21031;DHT22;61072;47.808;7.636;2023-04-25T00:54:23;10.70;99.90
21031;DHT22;61072;47.808;7.636;2023-04-25T00:56:51;10.70;99.90
21031;DHT22;61072;47.808;7.636;2023-04-25T00:59:19;10.70;99.90
21031;DHT22;61072;47.808;7.636;2023-04-25T01:01:46;10.70;99.90
21031;DHT22;61072;47.808;7.636;2023-04-25T01:04:13;10.70;99.90
21031;DHT22;61072;47.808;7.636;2023-04-25T01:06:40;10.70;99.90
21031;DHT22;61072;47.808;7.636;2023-04-25T01:09:07;10.60;99.90
21031;DHT22;61072;47.808;7.636;2023-04-25T01:11:34;10.60;99.90
21031;DHT22;61072;47.808;7.636;2023-04-25T01:14:01;10.60;99.90
21031;DHT22;61072;47.808;7.636;2023-04-25T01:16:28;10.60;99.90
21031;DHT22;61072;47.808;7.636;2023-04-25T01:18:55;10.50;99.90
21031;DHT22;61072;47.808;7.636;2023-04-25T01:21:23;10.50;99.90
21031;DHT22;61072;47.808;7.636;2023-04-25T01:23:53;10.60;99.90
21031;DHT22;61072;47.808;7.636;2023-04-25T01:26:21;10.50;99.90
21031;DHT22;61072;47.808;7.636;2023-04-25T01:28:48;10.50;99.90
21031;DHT22;61072;47.808;7.636;2023-04-25T01:31:15;10.50;99.90
21031;DHT22;61072;47.808;7.636;2023-04-25T01:33:43;10.50;99.90
21031;DHT22;61072;47.808;7.636;2023-04-25T01:36:10;10.50;99.90
21031;DHT22;61072;47.808;7.636;2023-04-25T01:38:37;10.50;99.90
21031;DHT22;61072;47.808;7.636;2023-04-25T01:41:05;10.50;99.90
21031;DHT22;61072;47.808;7.636;2023-04-25T01:43:31;10.50;99.90
21031;DHT22;61072;47.808;7.636;2023-04-25T01:45:58;10.50;99.90
21031;DHT22;61072;47.808;7.636;2023-04-25T01:48:26;10.50;99.90
21031;DHT22;61072;47.808;7.636;2023-04-25T01:50:52;10.50;99.90
21031;DHT22;61072;47.808;7.636;2023-04-25T01:53:19;10.40;99.90
21031;DHT22;61072;47.808;7.636;2023-04-25T01:55:46;10.50;99.90
21031;DHT22;61072;47.808;7.636;2023-04-25T01:58:12;10.40;99.90
21031;DHT22;61072;47.808;7.636;2023-04-25T02:00:39;10.40;99.90
21031;DHT22;61072;47.808;7.636;2023-04-25T02:03:07;10.40;99.90
21031;DHT22;61072;47.808;7.636;2023-04-25T02:05:39;10.40;99.90
21031;DHT22;61072;47.808;7.636;2023-04-25T02:08:07;10.40;99.90
21031;DHT22;61072;47.808;7.636;2023-04-25T02:10:35;10.40;99.90
21031;DHT22;61072;47.808;7.636;2023-04-25T02:13:01;10.40;99.90
21031;DHT22;61072;47.808;7.636;2023-04-25T02:15:28;10.30;99.90
21031;DHT22;61072;47.808;7.636;2023-04-25T02:17:55;10.30;99.90
21031;DHT22;61072;47.808;7.636;2023-04-25T02:20:23;10.30;99.90
21031;DHT22;61072;47.808;7.636;2023-04-25T02:22:50;10.30;99.90
21031;DHT22;61072;47.808;7.636;2023-04-25T02:25:18;10.30;99.90
21031;DHT22;61072;47.808;7.636;2023-04-25T02:27:47;10.20;99.90
21031;DHT22;61072;47.808;7.636;2023-04-25T02:30:14;10.20;99.90
21031;DHT22;61072;47.808;7.636;2023-04-25T02:32:41;10.20;99.90
21031;DHT22;61072;47.808;7.636;2023-04-25T02:35:08;10.20;99.90
21031;DHT22;61072;47.808;7.636;2023-04-25T02:37:36;10.20;99.90
21031;DHT22;61072;47.808;7.636;2023-04-25T02:40:04;10.10;99.90
21031;DHT22;61072;47.808;7.636;2023-04-25T02:42:31;10.10;99.90
21031;DHT22;61072;47.808;7.636;2023-04-25T02:44:58;10.10;99.90
21031;DHT22;61072;47.808;7.636;2023-04-25T02:47:25;10.00;99.90
21031;DHT22;61072;47.808;7.636;2023-04-25T02:49:52;10.00;99.90
21031;DHT22;61072;47.808;7.636;2023-04-25T02:52:18;10.00;99.90
21031;DHT22;61072;47.808;7.636;2023-04-25T02:54:45;10.00;99.90
21031;DHT22;61072;47.808;7.636;2023-04-25T02:57:12;9.90;99.90
21031;DHT22;61072;47.808;7.636;2023-04-25T02:59:38;9.90;99.90
21031;DHT22;61072;47.808;7.636;2023-04-25T03:02:05;9.90;99.90
21031;DHT22;61072;47.808;7.636;2023-04-25T03:04:33;9.90;99.90
21031;DHT22;61072;47.808;7.636;2023-04-25T03:07:01;9.90;99.90
21031;DHT22;61072;47.808;7.636;2023-04-25T03:09:29;9.90;99.90
21031;DHT22;61072;47.808;7.636;2023-04-25T03:11:57;9.90;99.90
21031;DHT22;61072;47.808;7.636;2023-04-25T03:14:25;9.90;99.90
21031;DHT22;61072;47.808;7.636;2023-04-25T03:16:52;9.90;99.90
21031;DHT22;61072;47.808;7.636;2023-04-25T03:19:19;9.80;99.90
21031;DHT22;61072;47.808;7.636;2023-04-25T03:21:47;9.80;99.90
21031;DHT22;61072;47.808;7.636;2023-04-25T03:24:14;9.70;99.90
21031;DHT22;61072;47.808;7.636;2023-04-25T03:26:41;9.70;99.90
21031;DHT22;61072;47.808;7.636;2023-04-25T03:29:08;9.70;99.90
21031;DHT22;61072;47.808;7.636;2023-04-25T03:31:35;9.70;99.90
21031;DHT22;61072;47.808;7.636;2023-04-25T03:34:01;9.70;99.90
21031;DHT22;61072;47.808;7.636;2023-04-25T03:36:28;9.70;99.90
21031;DHT22;61072;47.808;7.636;2023-04-25T03:38:55;9.60;99.90
21031;DHT22;61072;47.808;7.636;2023-04-25T03:41:22;9.60;99.90
21031;DHT22;61072;47.808;7.636;2023-04-25T03:43:48;9.60;99.90
21031;DHT22;61072;47.808;7.636;2023-04-25T03:46:15;9.60;99.90
21031;DHT22;61072;47.808;7.636;2023-04-25T03:48:42;9.60;99.90
21031;DHT22;61072;47.808;7.636;2023-04-25T03:51:09;9.60;99.90
21031;DHT22;61072;47.808;7.636;2023-04-25T03:53:35;9.60;99.90
21031;DHT22;61072;47.808;7.636;2023-04-25T03:56:02;9.60;99.90
21031;DHT22;61072;47.808;7.636;2023-04-25T03:58:29;9.50;99.90
21031;DHT22;61072;47.808;7.636;2023-04-25T04:00:56;9.50;99.90
21031;DHT22;61072;47.808;7.636;2023-04-25T04:03:22;9.50;99.90
21031;DHT22;61072;47.808;7.636;2023-04-25T04:05:49;9.60;99.90
21031;DHT22;61072;47.808;7.636;2023-04-25T04:08:17;9.60;99.90
21031;DHT22;61072;47.808;7.636;2023-04-25T04:10:43;9.60;99.90
21031;DHT22;61072;47.808;7.636;2023-04-25T04:13:10;9.60;99.90
21031;DHT22;61072;47.808;7.636;2023-04-25T04:15:37;9.60;99.90
21031;DHT22;61072;47.808;7.636;2023-04-25T04:18:04;9.70;99.90
21031;DHT22;61072;47.808;7.636;2023-04-25T04:20:35;9.70;99.90
21031;DHT22;61072;47.808;7.636;2023-04-25T04:23:03;9.70;99.90
21031;DHT22;61072;47.808;7.636;2023-04-25T04:25:30;9.70;99.90
21031;DHT22;61072;47.808;7.636;2023-04-25T04:27:56;9.80;99.90
21031;DHT22;61072;47.808;7.636;2023-04-25T04:30:24;9.80;99.90
21031;DHT22;61072;47.808;7.636;2023-04-25T04:32:51;9.80;99.90
21031;DHT22;61072;47.808;7.636;2023-04-25T04:35:19;9.90;99.90
21031;DHT22;61072;47.808;7.636;2023-04-25T04:37:45;9.90;99.90
21031;DHT22;61072;47.808;7.636;2023-04-25T04:40:12;9.90;99.90
21031;DHT22;61072;47.808;7.636;2023-04-25T04:42:43;10.00;99.90
21031;DHT22;61072;47.808;7.636;2023-04-25T04:45:09;10.00;99.90
21031;DHT22;61072;47.808;7.636;2023-04-25T04:47:37;10.00;99.90
21031;DHT22;61072;47.808;7.636;2023-04-25T04:50:04;10.00;99.90
21031;DHT22;61072;47.808;7.636;2023-04-25T04:52:30;10.10;99.90
21031;DHT22;61072;47.808;7.636;2023-04-25T04:54:57;10.10;99.90
21031;DHT22;61072;47.808;7.636;2023-04-25T04:57:24;9.90;99.90
21031;DHT22;61072;47.808;7.636;2023-04-25T04:59:51;9.60;99.90
21031;DHT22;61072;47.808;7.636;2023-04-25T05:02:18;9.50;99.90
21031;DHT22;61072;47.808;7.636;2023-04-25T05:04:44;9.40;99.90
21031;DHT22;61072;47.808;7.636;2023-04-25T05:07:11;9.40;99.90
21031;DHT22;61072;47.808;7.636;2023-04-25T05:09:38;9.20;99.90
21031;DHT22;61072;47.808;7.636;2023-04-25T05:12:05;9.10;99.90
21031;DHT22;61072;47.808;7.636;2023-04-25T05:14:32;9.10;99.90
21031;DHT22;61072;47.808;7.636;2023-04-25T05:16:58;9.10;99.90
21031;DHT22;61072;47.808;7.636;2023-04-25T05:19:26;8.90;99.90
21031;DHT22;61072;47.808;7.636;2023-04-25T05:21:52;8.90;99.90
21031;DHT22;61072;47.808;7.636;2023-04-25T05:24:19;8.80;99.90
21031;DHT22;61072;47.808;7.636;2023-04-25T05:26:46;8.60;99.90
21031;DHT22;61072;47.808;7.636;2023-04-25T05:29:13;8.60;99.90
21031;DHT22;61072;47.808;7.636;2023-04-25T05:31:39;8.50;99.90
21031;DHT22;61072;47.808;7.636;2023-04-25T05:34:06;8.60;99.90
21031;DHT22;61072;47.808;7.636;2023-04-25T05:36:33;8.60;99.90
21031;DHT22;61072;47.808;7.636;2023-04-25T05:38:59;8.50;99.90
21031;DHT22;61072;47.808;7.636;2023-04-25T05:41:26;8.50;99.90
21031;DHT22;61072;47.808;7.636;2023-04-25T05:43:53;8.60;99.90
21031;DHT22;61072;47.808;7.636;2023-04-25T05:46:23;8.60;99.90
21031;DHT22;61072;47.808;7.636;2023-04-25T05:48:50;8.60;99.90
21031;DHT22;61072;47.808;7.636;2023-04-25T05:51:16;8.70;99.90
21031;DHT22;61072;47.808;7.636;2023-04-25T05:53:44;8.80;99.90
21031;DHT22;61072;47.808;7.636;2023-04-25T05:56:11;8.80;99.90
21031;DHT22;61072;47.808;7.636;2023-04-25T05:58:38;8.90;99.90
21031;DHT22;61072;47.808;7.636;2023-04-25T06:01:05;8.90;99.90
21031;DHT22;61072;47.808;7.636;2023-04-25T06:03:31;8.90;99.90
21031;DHT22;61072;47.808;7.636;2023-04-25T06:05:58;8.90;99.90
21031;DHT22;61072;47.808;7.636;2023-04-25T06:08:25;9.00;99.90
21031;DHT22;61072;47.808;7.636;2023-04-25T06:10:52;8.90;99.90
21031;DHT22;61072;47.808;7.636;2023-04-25T06:13:19;9.00;99.90
21031;DHT22;61072;47.808;7.636;2023-04-25T06:15:45;9.00;99.90
21031;DHT22;61072;47.808;7.636;2023-04-25T06:18:12;9.00;99.90
21031;DHT22;61072;47.808;7.636;2023-04-25T06:20:39;9.00;99.90
21031;DHT22;61072;47.808;7.636;2023-04-25T06:23:06;9.00;99.90
21031;DHT22;61072;47.808;7.636;2023-04-25T06:25:32;9.00;99.90
21031;DHT22;61072;47.808;7.636;2023-04-25T06:27:59;9.00;99.90
21031;DHT22;61072;47.808;7.636;2023-04-25T06:30:26;9.00;99.90
21031;DHT22;61072;47.808;7.636;2023-04-25T06:32:53;9.10;99.90
21031;DHT22;61072;47.808;7.636;2023-04-25T06:35:20;9.10;99.90
21031;DHT22;61072;47.808;7.636;2023-04-25T06:37:47;9.20;99.90
21031;DHT22;61072;47.808;7.636;2023-04-25T06:40:14;9.30;99.90
21031;DHT22;61072;47.808;7.636;2023-04-25T06:42:41;9.30;99.90
21031;DHT22;61072;47.808;7.636;2023-04-25T06:45:08;9.40;99.90
21031;DHT22;61072;47.808;7.636;2023-04-25T06:47:35;9.50;99.90
21031;DHT22;61072;47.808;7.636;2023-04-25T06:50:02;9.50;99.90
21031;DHT22;61072;47.808;7.636;2023-04-25T06:52:29;9.60;99.90
21031;DHT22;61072;47.808;7.636;2023-04-25T06:54:56;9.60;99.90
21031;DHT22;61072;47.808;7.636;2023-04-25T06:57:23;9.70;99.90
21031;DHT22;61072;47.808;7.636;2023-04-25T06:59:50;9.70;99.90
21031;DHT22;61072;47.808;7.636;2023-04-25T07:02:16;9.80;99.90
21031;DHT22;61072;47.808;7.636;2023-04-25T07:04:43;9.80;99.90
21031;DHT22;61072;47.808;7.636;2023-04-25T07:07:11;9.90;99.90
21031;DHT22;61072;47.808;7.636;2023-04-25T07:09:38;9.90;99.90
21031;DHT22;61072;47.808;7.636;2023-04-25T07:12:05;9.90;99.90
21031;DHT22;61072;47.808;7.636;2023-04-25T07:14:32;10.00;99.90
21031;DHT22;61072;47.808;7.636;2023-04-25T07:16:59;10.00;99.90
21031;DHT22;61072;47.808;7.636;2023-04-25T07:19:25;10.10;99.90
21031;DHT22;61072;47.808;7.636;2023-04-25T07:21:53;10.10;99.90
21031;DHT22;61072;47.808;7.636;2023-04-25T07:24:20;10.20;99.90
21031;DHT22;61072;47.808;7.636;2023-04-25T07:26:46;10.20;99.90
21031;DHT22;61072;47.808;7.636;2023-04-25T07:29:13;10.30;99.90
21031;DHT22;61072;47.808;7.636;2023-04-25T07:31:40;10.30;99.90
21031;DHT22;61072;47.808;7.636;2023-04-25T07:34:07;10.30;99.90
21031;DHT22;61072;47.808;7.636;2023-04-25T07:36:33;10.40;99.90
21031;DHT22;61072;47.808;7.636;2023-04-25T07:39:00;10.30;99.90
21031;DHT22;61072;47.808;7.636;2023-04-25T07:41:27;10.30;99.90
21031;DHT22;61072;47.808;7.636;2023-04-25T07:43:54;10.40;99.90
21031;DHT22;61072;47.808;7.636;2023-04-25T07:46:20;10.40;99.90
21031;DHT22;61072;47.808;7.636;2023-04-25T07:48:47;10.40;99.90
21031;DHT22;61072;47.808;7.636;2023-04-25T07:51:14;10.40;99.90
21031;DHT22;61072;47.808;7.636;2023-04-25T07:53:41;10.30;99.90
21031;DHT22;61072;47.808;7.636;2023-04-25T07:56:08;10.40;99.90
21031;DHT22;61072;47.808;7.636;2023-04-25T07:58:35;10.40;99.90
21031;DHT22;61072;47.808;7.636;2023-04-25T08:01:02;10.50;99.90
21031;DHT22;61072;47.808;7.636;2023-04-25T08:03:29;10.50;99.90
21031;DHT22;61072;47.808;7.636;2023-04-25T08:05:56;10.50;99.90
21031;DHT22;61072;47.808;7.636;2023-04-25T08:08:23;10.50;99.90
21031;DHT22;61072;47.808;7.636;2023-04-25T08:10:50;10.60;99.90
21031;DHT22;61072;47.808;7.636;2023-04-25T08:13:17;10.60;99.90
21031;DHT22;61072;47.808;7.636;2023-04-25T08:15:43;10.60;99.90
21031;DHT22;61072;47.808;7.636;2023-04-25T08:18:10;10.70;99.90
21031;DHT22;61072;47.808;7.636;2023-04-25T08:20:37;10.70;99.90
21031;DHT22;61072;47.808;7.636;2023-04-25T08:23:03;10.80;99.90
21031;DHT22;61072;47.808;7.636;2023-04-25T08:25:30;10.90;99.90
21031;DHT22;61072;47.808;7.636;2023-04-25T08:27:57;10.90;99.90
21031;DHT22;61072;47.808;7.636;2023-04-25T08:30:25;11.00;99.90
21031;DHT22;61072;47.808;7.636;2023-04-25T08:32:53;11.00;99.90
21031;DHT22;61072;47.808;7.636;2023-04-25T08:35:20;11.00;99.90
21031;DHT22;61072;47.808;7.636;2023-04-25T08:37:47;11.10;99.90
21031;DHT22;61072;47.808;7.636;2023-04-25T08:40:16;11.10;99.90
21031;DHT22;61072;47.808;7.636;2023-04-25T08:42:42;11.10;99.90
21031;DHT22;61072;47.808;7.636;2023-04-25T08:45:10;11.10;99.90
21031;DHT22;61072;47.808;7.636;2023-04-25T08:47:38;11.20;99.90
21031;DHT22;61072;47.808;7.636;2023-04-25T08:50:06;11.20;99.90
21031;DHT22;61072;47.808;7.636;2023-04-25T08:52:40;11.40;99.90
21031;DHT22;61072;47.808;7.636;2023-04-25T08:55:09;11.50;99.90
21031;DHT22;61072;47.808;7.636;2023-04-25T08:57:39;11.50;99.90
21031;DHT22;61072;47.808;7.636;2023-04-25T09:00:08;11.60;99.90
21031;DHT22;61072;47.808;7.636;2023-04-25T09:02:36;11.70;99.90
21031;DHT22;61072;47.808;7.636;2023-04-25T09:05:03;11.80;99.90
21031;DHT22;61072;47.808;7.636;2023-04-25T09:07:30;11.90;99.90
21031;DHT22;61072;47.808;7.636;2023-04-25T09:09:57;12.00;99.90
21031;DHT22;61072;47.808;7.636;2023-04-25T09:12:26;12.10;99.90
21031;DHT22;61072;47.808;7.636;2023-04-25T09:15:09;12.20;99.90
21031;DHT22;61072;47.808;7.636;2023-04-25T09:17:36;12.30;99.90
21031;DHT22;61072;47.808;7.636;2023-04-25T09:20:12;12.40;99.90
21031;DHT22;61072;47.808;7.636;2023-04-25T09:22:39;12.50;99.90
21031;DHT22;61072;47.808;7.636;2023-04-25T09:25:14;12.70;99.90
21031;DHT22;61072;47.808;7.636;2023-04-25T09:27:54;12.90;99.90
21031;DHT22;61072;47.808;7.636;2023-04-25T09:30:30;13.10;99.90
21031;DHT22;61072;47.808;7.636;2023-04-25T09:33:02;13.20;99.90
21031;DHT22;61072;47.808;7.636;2023-04-25T09:35:38;13.30;99.90
21031;DHT22;61072;47.808;7.636;2023-04-25T09:38:13;13.30;99.90
21031;DHT22;61072;47.808;7.636;2023-04-25T09:40:41;13.30;99.90
21031;DHT22;61072;47.808;7.636;2023-04-25T09:43:19;13.30;99.90
21031;DHT22;61072;47.808;7.636;2023-04-25T09:45:47;13.30;99.90
21031;DHT22;61072;47.808;7.636;2023-04-25T09:48:21;13.40;99.90
21031;DHT22;61072;47.808;7.636;2023-04-25T09:51:13;13.40;99.90
21031;DHT22;61072;47.808;7.636;2023-04-25T09:53:42;13.50;99.90
21031;DHT22;61072;47.808;7.636;2023-04-25T09:56:10;13.50;99.90
21031;DHT22;61072;47.808;7.636;2023-04-25T09:58:39;13.60;99.90
21031;DHT22;61072;47.808;7.636;2023-04-25T10:01:08;13.60;99.90
21031;DHT22;61072;47.808;7.636;2023-04-25T10:03:38;13.70;99.90
21031;DHT22;61072;47.808;7.636;2023-04-25T10:06:15;13.60;99.90
21031;DHT22;61072;47.808;7.636;2023-04-25T10:08:44;13.60;99.90
21031;DHT22;61072;47.808;7.636;2023-04-25T10:11:12;13.50;99.90
21031;DHT22;61072;47.808;7.636;2023-04-25T10:13:43;13.50;99.90
21031;DHT22;61072;47.808;7.636;2023-04-25T10:16:09;13.50;99.90
21031;DHT22;61072;47.808;7.636;2023-04-25T10:18:36;13.50;99.90
21031;DHT22;61072;47.808;7.636;2023-04-25T10:21:05;13.50;99.90
21031;DHT22;61072;47.808;7.636;2023-04-25T10:23:32;13.50;99.90
21031;DHT22;61072;47.808;7.636;2023-04-25T10:26:01;13.40;99.90
21031;DHT22;61072;47.808;7.636;2023-04-25T10:28:28;13.40;99.90
21031;DHT22;61072;47.808;7.636;2023-04-25T10:31:04;13.40;99.90
21031;DHT22;61072;47.808;7.636;2023-04-25T10:33:38;13.40;99.90
21031;DHT22;61072;47.808;7.636;2023-04-25T10:36:18;13.40;99.90
21031;DHT22;61072;47.808;7.636;2023-04-25T10:38:46;13.40;99.90
21031;DHT22;61072;47.808;7.636;2023-04-25T10:41:14;13.50;99.90
21031;DHT22;61072;47.808;7.636;2023-04-25T10:43:44;13.60;99.90
21031;DHT22;61072;47.808;7.636;2023-04-25T10:46:28;13.80;99.90
21031;DHT22;61072;47.808;7.636;2023-04-25T10:49:02;13.90;99.90
21031;DHT22;61072;47.808;7.636;2023-04-25T10:51:31;13.90;99.90
21031;DHT22;61072;47.808;7.636;2023-04-25T10:54:18;14.00;99.90
21031;DHT22;61072;47.808;7.636;2023-04-25T10:56:48;14.10;99.90
21031;DHT22;61072;47.808;7.636;2023-04-25T10:59:17;14.10;99.90
21031;DHT22;61072;47.808;7.636;2023-04-25T11:01:51;14.20;99.90
21031;DHT22;61072;47.808;7.636;2023-04-25T11:04:24;14.30;99.90
21031;DHT22;61072;47.808;7.636;2023-04-25T11:09:42;14.40;99.90
21031;DHT22;61072;47.808;7.636;2023-04-25T11:12:11;14.40;99.90
21031;DHT22;61072;47.808;7.636;2023-04-25T11:14:39;14.50;99.90
21031;DHT22;61072;47.808;7.636;2023-04-25T11:17:11;14.40;99.90
21031;DHT22;61072;47.808;7.636;2023-04-25T11:19:38;14.40;99.90
21031;DHT22;61072;47.808;7.636;2023-04-25T11:22:05;14.40;99.90
21031;DHT22;61072;47.808;7.636;2023-04-25T11:24:34;14.30;99.90
21031;DHT22;61072;47.808;7.636;2023-04-25T11:27:04;14.10;99.90
21031;DHT22;61072;47.808;7.636;2023-04-25T11:29:33;13.70;99.90
21031;DHT22;61072;47.808;7.636;2023-04-25T11:32:00;13.50;99.90
21031;DHT22;61072;47.808;7.636;2023-04-25T11:34:29;13.50;99.90
21031;DHT22;61072;47.808;7.636;2023-04-25T11:37:00;13.50;99.90
21031;DHT22;61072;47.808;7.636;2023-04-25T11:39:29;13.20;99.90
21031;DHT22;61072;47.808;7.636;2023-04-25T11:41:56;12.80;99.90
21031;DHT22;61072;47.808;7.636;2023-04-25T11:44:23;12.60;99.90
21031;DHT22;61072;47.808;7.636;2023-04-25T11:46:50;12.00;99.90
21031;DHT22;61072;47.808;7.636;2023-04-25T11:49:17;11.40;99.90
21031;DHT22;61072;47.808;7.636;2023-04-25T11:51:46;10.70;99.90
21031;DHT22;61072;47.808;7.636;2023-04-25T11:54:13;10.60;99.90
21031;DHT22;61072;47.808;7.636;2023-04-25T11:56:42;10.70;99.90
21031;DHT22;61072;47.808;7.636;2023-04-25T11:59:09;10.70;99.90
21031;DHT22;61072;47.808;7.636;2023-04-25T12:01:39;10.90;99.90
21031;DHT22;61072;47.808;7.636;2023-04-25T12:04:21;11.10;99.90
21031;DHT22;61072;47.808;7.636;2023-04-25T12:06:57;11.10;99.90
21031;DHT22;61072;47.808;7.636;2023-04-25T12:09:31;11.20;99.90
21031;DHT22;61072;47.808;7.636;2023-04-25T12:11:59;11.20;99.90
21031;DHT22;61072;47.808;7.636;2023-04-25T12:14:31;11.20;99.90
21031;DHT22;61072;47.808;7.636;2023-04-25T12:16:59;11.30;99.90
21031;DHT22;61072;47.808;7.636;2023-04-25T12:19:32;11.30;99.90
21031;DHT22;61072;47.808;7.636;2023-04-25T12:22:07;11.40;99.90
21031;DHT22;61072;47.808;7.636;2023-04-25T12:24:45;11.40;99.90
21031;DHT22;61072;47.808;7.636;2023-04-25T12:27:14;11.30;99.90
21031;DHT22;61072;47.808;7.636;2023-04-25T12:29:54;11.20;99.90
21031;DHT22;61072;47.808;7.636;2023-04-25T12:32:21;11.20;99.90
21031;DHT22;61072;47.808;7.636;2023-04-25T12:34:48;11.20;99.90
21031;DHT22;61072;47.808;7.636;2023-04-25T12:37:14;11.30;99.90
21031;DHT22;61072;47.808;7.636;2023-04-25T12:39:42;11.50;99.90
21031;DHT22;61072;47.808;7.636;2023-04-25T12:42:08;11.50;99.90
21031;DHT22;61072;47.808;7.636;2023-04-25T12:44:38;11.70;99.90
21031;DHT22;61072;47.808;7.636;2023-04-25T12:47:05;11.60;99.90
21031;DHT22;61072;47.808;7.636;2023-04-25T12:49:32;11.70;99.90
21031;DHT22;61072;47.808;7.636;2023-04-25T12:51:59;11.70;99.90
21031;DHT22;61072;47.808;7.636;2023-04-25T12:54:26;11.70;99.90
21031;DHT22;61072;47.808;7.636;2023-04-25T12:56:52;11.90;99.90
21031;DHT22;61072;47.808;7.636;2023-04-25T12:59:19;11.80;99.90
21031;DHT22;61072;47.808;7.636;2023-04-25T13:01:47;11.60;99.90
21031;DHT22;61072;47.808;7.636;2023-04-25T13:04:14;11.40;99.90
21031;DHT22;61072;47.808;7.636;2023-04-25T13:06:42;11.20;99.90
21031;DHT22;61072;47.808;7.636;2023-04-25T13:09:09;10.80;99.90
21031;DHT22;61072;47.808;7.636;2023-04-25T13:11:36;10.50;99.90
21031;DHT22;61072;47.808;7.636;2023-04-25T13:14:03;10.50;99.90
21031;DHT22;61072;47.808;7.636;2023-04-25T13:16:29;10.60;99.90
21031;DHT22;61072;47.808;7.636;2023-04-25T13:18:57;10.70;99.90
21031;DHT22;61072;47.808;7.636;2023-04-25T13:21:24;10.80;99.90
21031;DHT22;61072;47.808;7.636;2023-04-25T13:23:50;10.90;99.90
21031;DHT22;61072;47.808;7.636;2023-04-25T13:26:18;11.00;99.90
21031;DHT22;61072;47.808;7.636;2023-04-25T13:28:44;11.10;99.90
21031;DHT22;61072;47.808;7.636;2023-04-25T13:31:11;11.10;99.90
21031;DHT22;61072;47.808;7.636;2023-04-25T13:33:38;11.20;99.90
21031;DHT22;61072;47.808;7.636;2023-04-25T13:36:04;11.20;99.90
21031;DHT22;61072;47.808;7.636;2023-04-25T13:38:32;11.20;99.90
21031;DHT22;61072;47.808;7.636;2023-04-25T13:40:59;11.10;99.90
21031;DHT22;61072;47.808;7.636;2023-04-25T13:43:26;11.10;99.90
21031;DHT22;61072;47.808;7.636;2023-04-25T13:45:52;11.10;99.90
21031;DHT22;61072;47.808;7.636;2023-04-25T13:48:19;11.00;99.90
21031;DHT22;61072;47.808;7.636;2023-04-25T13:50:46;11.00;99.90
21031;DHT22;61072;47.808;7.636;2023-04-25T13:53:13;11.00;99.90
21031;DHT22;61072;47.808;7.636;2023-04-25T13:55:40;11.00;99.90
21031;DHT22;61072;47.808;7.636;2023-04-25T13:58:07;11.00;99.90
21031;DHT22;61072;47.808;7.636;2023-04-25T14:00:38;11.10;99.90
21031;DHT22;61072;47.808;7.636;2023-04-25T14:03:06;11.10;99.90
21031;DHT22;61072;47.808;7.636;2023-04-25T14:05:36;11.20;99.90
21031;DHT22;61072;47.808;7.636;2023-04-25T14:08:06;11.30;99.90
21031;DHT22;61072;47.808;7.636;2023-04-25T14:10:34;11.30;99.90
21031;DHT22;61072;47.808;7.636;2023-04-25T14:13:02;11.40;99.90
21031;DHT22;61072;47.808;7.636;2023-04-25T14:15:32;11.50;99.90
21031;DHT22;61072;47.808;7.636;2023-04-25T14:18:00;11.50;99.90
21031;DHT22;61072;47.808;7.636;2023-04-25T14:20:27;11.50;99.90
21031;DHT22;61072;47.808;7.636;2023-04-25T14:22:54;11.60;99.90
21031;DHT22;61072;47.808;7.636;2023-04-25T14:25:23;11.70;99.90
21031;DHT22;61072;47.808;7.636;2023-04-25T14:27:50;11.80;99.90
21031;DHT22;61072;47.808;7.636;2023-04-25T14:30:18;11.80;99.90
21031;DHT22;61072;47.808;7.636;2023-04-25T14:32:45;11.90;99.90
21031;DHT22;61072;47.808;7.636;2023-04-25T14:35:12;12.00;99.90
21031;DHT22;61072;47.808;7.636;2023-04-25T14:37:39;12.10;99.90
21031;DHT22;61072;47.808;7.636;2023-04-25T14:40:07;12.20;99.90
21031;DHT22;61072;47.808;7.636;2023-04-25T14:42:37;12.20;99.90
21031;DHT22;61072;47.808;7.636;2023-04-25T14:45:05;12.30;99.90
21031;DHT22;61072;47.808;7.636;2023-04-25T14:47:33;12.30;99.90
21031;DHT22;61072;47.808;7.636;2023-04-25T14:50:00;12.30;99.90
21031;DHT22;61072;47.808;7.636;2023-04-25T14:52:28;12.20;99.90
21031;DHT22;61072;47.808;7.636;2023-04-25T14:54:54;12.30;99.90
21031;DHT22;61072;47.808;7.636;2023-04-25T14:57:21;12.20;99.90
21031;DHT22;61072;47.808;7.636;2023-04-25T14:59:48;12.10;99.90
21031;DHT22;61072;47.808;7.636;2023-04-25T15:02:15;11.90;99.90
21031;DHT22;61072;47.808;7.636;2023-04-25T15:04:42;11.70;99.90
21031;DHT22;61072;47.808;7.636;2023-04-25T15:07:09;11.60;99.90
21031;DHT22;61072;47.808;7.636;2023-04-25T15:09:36;11.40;99.90
21031;DHT22;61072;47.808;7.636;2023-04-25T15:12:03;11.30;99.90
21031;DHT22;61072;47.808;7.636;2023-04-25T15:14:30;11.20;99.90
21031;DHT22;61072;47.808;7.636;2023-04-25T15:16:57;11.20;99.90
21031;DHT22;61072;47.808;7.636;2023-04-25T15:19:23;11.20;99.90
21031;DHT22;61072;47.808;7.636;2023-04-25T15:21:50;11.20;99.90
21031;DHT22;61072;47.808;7.636;2023-04-25T15:24:17;11.20;99.90
21031;DHT22;61072;47.808;7.636;2023-04-25T15:26:44;11.30;99.90
21031;DHT22;61072;47.808;7.636;2023-04-25T15:29:12;11.30;99.90
21031;DHT22;61072;47.808;7.636;2023-04-25T15:31:39;11.30;99.90
21031;DHT22;61072;47.808;7.636;2023-04-25T15:34:05;11.40;99.90
21031;DHT22;61072;47.808;7.636;2023-04-25T15:36:33;11.60;99.90
21031;DHT22;61072;47.808;7.636;2023-04-25T15:39:00;11.70;99.90
21031;DHT22;61072;47.808;7.636;2023-04-25T15:41:27;11.90;99.90